createdAt,value
2023-05-14T00:07:09.826Z,8.58
2023-05-14T00:22:06.281Z,8.82
2023-05-14T00:37:02.302Z,8.49
2023-05-14T00:51:58.302Z,8.35
2023-05-14T01:06:54.633Z,8.3
2023-05-14T01:21:50.930Z,8.22
2023-05-14T01:36:46.836Z,8.32
2023-05-14T01:51:43.196Z,8.84
2023-05-14T02:06:39.375Z,9.05
2023-05-14T02:21:35.597Z,8.87
2023-05-14T02:36:31.650Z,8.9
2023-05-14T02:51:28.918Z,8.88
2023-05-14T03:06:24.343Z,8.59
2023-05-14T03:21:20.661Z,8.41
2023-05-14T03:36:16.887Z,8.43
2023-05-14T03:51:12.827Z,8.44
2023-05-14T04:06:08.870Z,8.42
2023-05-14T04:21:05.641Z,8.75
2023-05-14T04:36:01.710Z,9.11
2023-05-14T04:50:58.326Z,9.33
2023-05-14T05:05:54.895Z,9.27
2023-05-14T05:20:51.275Z,9.65
2023-05-14T05:35:47.841Z,9.58
2023-05-14T05:50:44.239Z,9.66
2023-05-14T06:05:40.739Z,9.85
2023-05-14T06:20:37.190Z,10.55
2023-05-14T06:35:33.696Z,10.56
2023-05-14T06:50:30.271Z,11.5
2023-05-14T07:05:26.621Z,11.74
2023-05-14T07:20:23.153Z,12.05
2023-05-14T07:35:19.219Z,13.65
2023-05-14T07:50:15.136Z,16
2023-05-14T08:05:12.038Z,16.4
2023-05-14T08:20:08.866Z,17.66
2023-05-14T08:35:05.544Z,19.67
2023-05-14T08:50:02.311Z,19.33
2023-05-14T09:04:58.863Z,20.1
2023-05-14T09:19:55.527Z,20.19
2023-05-14T09:34:52.691Z,20.02
2023-05-14T09:49:49.429Z,20.96
2023-05-14T10:04:45.956Z,20.58
2023-05-14T10:19:42.403Z,19.85
2023-05-14T10:34:38.621Z,20.74
2023-05-14T10:49:42.683Z,21.18
2023-05-14T11:04:31.145Z,20.29
2023-05-14T11:19:26.766Z,20.71
2023-05-14T11:34:23.499Z,21.43
2023-05-14T12:04:15.827Z,20.55
2023-05-14T12:19:11.772Z,21.49
2023-05-14T12:34:08.156Z,20.89
2023-05-14T12:49:03.946Z,20
2023-05-14T13:04:00.159Z,20.55
2023-05-14T13:18:56.431Z,20.33
2023-05-14T13:33:52.368Z,20.74
2023-05-14T13:48:49.191Z,23.58
2023-05-14T14:03:47.014Z,22.62
2023-05-14T14:18:43.591Z,21.94
2023-05-14T14:33:39.209Z,22.56
2023-05-14T14:48:34.664Z,21.69
2023-05-14T15:03:30.616Z,22.05
2023-05-14T15:18:27.329Z,22.81
2023-05-14T15:33:23.822Z,21.42
2023-05-14T15:48:19.889Z,22.1
2023-05-14T16:03:16.313Z,21.11
2023-05-14T16:18:12.146Z,21.42
2023-05-14T16:33:08.717Z,21.19
2023-05-14T16:48:04.195Z,20.64
2023-05-14T17:03:00.301Z,21.05
2023-05-14T17:17:56.497Z,20.58
2023-05-14T17:32:52.222Z,20.44
2023-05-14T17:47:48.129Z,20.15
2023-05-14T18:02:44.057Z,19.91
2023-05-14T18:17:39.972Z,19.46
2023-05-14T18:32:35.669Z,18.68
2023-05-14T18:47:32.051Z,17.86
2023-05-14T19:02:26.986Z,16.64
2023-05-14T19:17:22.668Z,16.1
2023-05-14T19:32:18.493Z,15.92
2023-05-14T19:47:14.464Z,15.71
2023-05-14T20:02:09.968Z,15.35
2023-05-14T20:17:06.114Z,15.58
2023-05-14T20:32:02.160Z,14.94
2023-05-14T20:46:58.256Z,14.64
2023-05-14T21:01:54.455Z,14.33
2023-05-14T21:16:50.672Z,13.77
2023-05-14T21:31:46.657Z,13.34
2023-05-14T21:46:42.868Z,13.15
2023-05-14T22:01:56.007Z,12.81
2023-05-14T22:16:34.650Z,12.54
2023-05-14T22:31:30.560Z,12.31
2023-05-14T22:46:26.544Z,12.02
2023-05-14T23:01:22.404Z,11.73
2023-05-14T23:16:18.392Z,11.84
2023-05-14T23:31:14.880Z,11.59
2023-05-14T23:46:11.031Z,11.59
